Terminal Aerodrome Forecast
Issued by NWS Cleveland, OH

Home | Current Version | Previous Version | Graphics & Text | Print | Product List | Glossary On
Versions: 1 2 3 4 5 6 7 8 9 10 11 12 13 14 15 16
000
FTUS41 KCLE 282329
TAFERI
TAF
KERI 282329Z 2900/2924 VRB03KT P6SM SCT150 BKN200
     FM290700 02005KT P6SM SCT200
     FM291500 36010KT P6SM FEW040=

USA.gov is the U.S. government's official web portal to all federal, state and local government web resources and services.